sensor_id;sensor_type;location;lat;lon;timestamp;pressure;altitude;pressure_sealevel;temperature;humidity
75146;BME280;63641;46.526;24.612;2022-10-17T00:00:38;98663.63;;;6.17;73.38
75146;BME280;63641;46.526;24.612;2022-10-17T00:03:05;98664.44;;;6.18;73.39
75146;BME280;63641;46.526;24.612;2022-10-17T00:05:32;98655.16;;;6.14;73.55
75146;BME280;63641;46.526;24.612;2022-10-17T00:07:59;98657.66;;;6.15;73.18
75146;BME280;63641;46.526;24.612;2022-10-17T00:10:25;98657.03;;;6.13;73.17
75146;BME280;63641;46.526;24.612;2022-10-17T00:12:53;98659.34;;;6.10;73.29
75146;BME280;63641;46.526;24.612;2022-10-17T00:15:20;98660.81;;;6.05;73.25
75146;BME280;63641;46.526;24.612;2022-10-17T00:17:47;98667.25;;;6.04;73.36
75146;BME280;63641;46.526;24.612;2022-10-17T00:20:14;98663.94;;;6.02;73.47
75146;BME280;63641;46.526;24.612;2022-10-17T00:22:41;98663.78;;;5.97;73.55
75146;BME280;63641;46.526;24.612;2022-10-17T00:25:09;98664.00;;;5.96;73.55
75146;BME280;63641;46.526;24.612;2022-10-17T00:27:39;98669.59;;;5.94;73.53
75146;BME280;63641;46.526;24.612;2022-10-17T00:30:13;98665.28;;;5.93;73.32
75146;BME280;63641;46.526;24.612;2022-10-17T00:32:41;98662.97;;;5.90;73.44
75146;BME280;63641;46.526;24.612;2022-10-17T00:35:08;98661.34;;;5.89;73.56
75146;BME280;63641;46.526;24.612;2022-10-17T00:37:34;98661.34;;;5.89;73.87
75146;BME280;63641;46.526;24.612;2022-10-17T00:40:02;98656.41;;;5.86;73.98
75146;BME280;63641;46.526;24.612;2022-10-17T00:42:29;98655.59;;;5.86;73.80
75146;BME280;63641;46.526;24.612;2022-10-17T00:45:09;98658.47;;;5.84;73.63
75146;BME280;63641;46.526;24.612;2022-10-17T00:47:38;98658.47;;;5.84;73.80
75146;BME280;63641;46.526;24.612;2022-10-17T00:50:05;98664.06;;;5.82;74.12
75146;BME280;63641;46.526;24.612;2022-10-17T00:52:33;98661.16;;;5.84;74.21
75146;BME280;63641;46.526;24.612;2022-10-17T00:55:11;98664.88;;;5.83;74.13
75146;BME280;63641;46.526;24.612;2022-10-17T00:57:39;98659.94;;;5.80;74.21
75146;BME280;63641;46.526;24.612;2022-10-17T01:00:10;98663.69;;;5.79;74.04
75146;BME280;63641;46.526;24.612;2022-10-17T01:02:37;98662.25;;;5.76;74.11
75146;BME280;63641;46.526;24.612;2022-10-17T01:05:05;98664.34;;;5.74;74.39
75146;BME280;63641;46.526;24.612;2022-10-17T01:07:33;98666.41;;;5.72;74.38
75146;BME280;63641;46.526;24.612;2022-10-17T01:10:05;98668.28;;;5.72;74.28
75146;BME280;63641;46.526;24.612;2022-10-17T01:12:44;98666.41;;;5.72;74.41
75146;BME280;63641;46.526;24.612;2022-10-17T01:26:43;98665.38;;;5.73;74.33
75146;BME280;63641;46.526;24.612;2022-10-17T01:32:18;98673.66;;;5.72;74.37
75146;BME280;63641;46.526;24.612;2022-10-17T01:35:00;98678.19;;;5.71;74.51
75146;BME280;63641;46.526;24.612;2022-10-17T01:40:07;98686.41;;;5.76;74.47
75146;BME280;63641;46.526;24.612;2022-10-17T01:45:37;98680.81;;;5.78;74.54
75146;BME280;63641;46.526;24.612;2022-10-17T01:48:11;98683.06;;;5.81;74.57
75146;BME280;63641;46.526;24.612;2022-10-17T01:50:44;98691.75;;;5.83;74.71
75146;BME280;63641;46.526;24.612;2022-10-17T01:53:21;98693.81;;;5.81;74.74
75146;BME280;63641;46.526;24.612;2022-10-17T01:55:51;98695.50;;;5.82;74.54
75146;BME280;63641;46.526;24.612;2022-10-17T01:58:32;98697.13;;;5.83;74.79
75146;BME280;63641;46.526;24.612;2022-10-17T02:01:02;98699.00;;;5.82;74.88
75146;BME280;63641;46.526;24.612;2022-10-17T02:03:31;98699.56;;;5.85;75.04
75146;BME280;63641;46.526;24.612;2022-10-17T02:06:00;98695.03;;;5.85;74.85
75146;BME280;63641;46.526;24.612;2022-10-17T02:08:39;98698.34;;;5.87;75.08
75146;BME280;63641;46.526;24.612;2022-10-17T02:11:19;98709.69;;;5.89;74.95
75146;BME280;63641;46.526;24.612;2022-10-17T02:22:28;98708.72;;;5.77;75.52
75146;BME280;63641;46.526;24.612;2022-10-17T02:25:09;98708.13;;;5.75;75.54
75146;BME280;63641;46.526;24.612;2022-10-17T02:27:53;98713.69;;;5.73;75.45
75146;BME280;63641;46.526;24.612;2022-10-17T02:33:22;98725.25;;;5.74;75.57
75146;BME280;63641;46.526;24.612;2022-10-17T02:35:51;98728.19;;;5.72;75.47
75146;BME280;63641;46.526;24.612;2022-10-17T02:38:20;98720.34;;;5.71;75.14
75146;BME280;63641;46.526;24.612;2022-10-17T02:40:50;98727.34;;;5.72;75.55
75146;BME280;63641;46.526;24.612;2022-10-17T02:43:18;98731.09;;;5.71;75.30
75146;BME280;63641;46.526;24.612;2022-10-17T02:45:45;98730.03;;;5.72;75.41
75146;BME280;63641;46.526;24.612;2022-10-17T02:48:40;98729.66;;;5.68;75.20
75146;BME280;63641;46.526;24.612;2022-10-17T02:51:12;98731.50;;;5.68;75.29
75146;BME280;63641;46.526;24.612;2022-10-17T02:54:08;98729.84;;;5.67;75.32
75146;BME280;63641;46.526;24.612;2022-10-17T02:57:04;98733.59;;;5.66;75.18
75146;BME280;63641;46.526;24.612;2022-10-17T02:59:33;98734.41;;;5.66;75.01
75146;BME280;63641;46.526;24.612;2022-10-17T03:02:03;98726.19;;;5.61;74.96
75146;BME280;63641;46.526;24.612;2022-10-17T03:04:31;98732.38;;;5.62;74.67
75146;BME280;63641;46.526;24.612;2022-10-17T03:06:58;98737.13;;;5.60;74.84
75146;BME280;63641;46.526;24.612;2022-10-17T03:09:25;98731.97;;;5.58;74.55
75146;BME280;63641;46.526;24.612;2022-10-17T03:11:52;98732.78;;;5.58;74.77
75146;BME280;63641;46.526;24.612;2022-10-17T03:14:19;98737.97;;;5.60;74.95
75146;BME280;63641;46.526;24.612;2022-10-17T03:16:46;98737.72;;;5.62;74.90
75146;BME280;63641;46.526;24.612;2022-10-17T03:19:12;98738.78;;;5.61;75.12
75146;BME280;63641;46.526;24.612;2022-10-17T03:21:39;98740.84;;;5.58;75.21
75146;BME280;63641;46.526;24.612;2022-10-17T03:24:06;98742.72;;;5.58;75.27
75146;BME280;63641;46.526;24.612;2022-10-17T03:26:33;98741.88;;;5.57;75.13
75146;BME280;63641;46.526;24.612;2022-10-17T03:29:00;98750.16;;;5.56;75.41
75146;BME280;63641;46.526;24.612;2022-10-17T03:31:26;98746.03;;;5.53;75.65
75146;BME280;63641;46.526;24.612;2022-10-17T03:33:53;98746.03;;;5.53;75.80
75146;BME280;63641;46.526;24.612;2022-10-17T03:36:20;98743.34;;;5.53;75.66
75146;BME280;63641;46.526;24.612;2022-10-17T03:38:47;98736.94;;;5.54;76.25
75146;BME280;63641;46.526;24.612;2022-10-17T03:41:14;98745.63;;;5.56;76.05
75146;BME280;63641;46.526;24.612;2022-10-17T03:43:41;98750.53;;;5.60;75.98
75146;BME280;63641;46.526;24.612;2022-10-17T03:46:07;98746.03;;;5.60;75.80
75146;BME280;63641;46.526;24.612;2022-10-17T03:48:34;98746.84;;;5.61;75.87
75146;BME280;63641;46.526;24.612;2022-10-17T03:51:04;98752.22;;;5.61;75.66
75146;BME280;63641;46.526;24.612;2022-10-17T03:53:31;98755.91;;;5.60;75.95
75146;BME280;63641;46.526;24.612;2022-10-17T03:56:18;98749.31;;;5.55;75.77
75146;BME280;63641;46.526;24.612;2022-10-17T03:58:45;98752.84;;;5.56;75.67
75146;BME280;63641;46.526;24.612;2022-10-17T04:01:14;98756.34;;;5.56;75.64
75146;BME280;63641;46.526;24.612;2022-10-17T04:03:42;98764.63;;;5.55;75.61
75146;BME280;63641;46.526;24.612;2022-10-17T04:06:12;98762.16;;;5.53;75.49
75146;BME280;63641;46.526;24.612;2022-10-17T04:08:39;98762.56;;;5.50;75.40
75146;BME280;63641;46.526;24.612;2022-10-17T04:11:06;98767.94;;;5.50;75.34
75146;BME280;63641;46.526;24.612;2022-10-17T04:13:34;98770.84;;;5.49;75.55
75146;BME280;63641;46.526;24.612;2022-10-17T04:16:04;98766.50;;;5.48;75.36
75146;BME280;63641;46.526;24.612;2022-10-17T04:18:31;98772.91;;;5.47;75.31
75146;BME280;63641;46.526;24.612;2022-10-17T04:21:05;98774.97;;;5.45;75.41
75146;BME280;63641;46.526;24.612;2022-10-17T04:23:32;98773.75;;;5.41;75.31
75146;BME280;63641;46.526;24.612;2022-10-17T04:26:00;98772.13;;;5.40;75.25
75146;BME280;63641;46.526;24.612;2022-10-17T04:28:27;98777.72;;;5.38;74.90
75146;BME280;63641;46.526;24.612;2022-10-17T04:30:58;98773.81;;;5.34;75.25
75146;BME280;63641;46.526;24.612;2022-10-17T04:33:25;98785.78;;;5.31;75.07
75146;BME280;63641;46.526;24.612;2022-10-17T04:36:06;98781.66;;;5.29;75.06
75146;BME280;63641;46.526;24.612;2022-10-17T04:38:33;98786.41;;;5.27;75.03
75146;BME280;63641;46.526;24.612;2022-10-17T04:41:02;98781.06;;;5.27;74.89
75146;BME280;63641;46.526;24.612;2022-10-17T04:43:33;98784.97;;;5.24;74.84
75146;BME280;63641;46.526;24.612;2022-10-17T04:46:02;98786.22;;;5.22;74.79
75146;BME280;63641;46.526;24.612;2022-10-17T04:48:30;98782.50;;;5.23;74.91
75146;BME280;63641;46.526;24.612;2022-10-17T04:50:59;98793.25;;;5.23;74.67
75146;BME280;63641;46.526;24.612;2022-10-17T04:53:26;98793.25;;;5.23;74.84
75146;BME280;63641;46.526;24.612;2022-10-17T04:55:53;98789.94;;;5.21;74.69
75146;BME280;63641;46.526;24.612;2022-10-17T04:58:20;98792.44;;;5.16;74.59
75146;BME280;63641;46.526;24.612;2022-10-17T05:00:47;98800.25;;;5.17;74.52
75146;BME280;63641;46.526;24.612;2022-10-17T05:03:14;98801.72;;;5.13;74.45
75146;BME280;63641;46.526;24.612;2022-10-17T05:05:41;98795.72;;;5.11;74.71
75146;BME280;63641;46.526;24.612;2022-10-17T05:08:10;98798.63;;;5.09;74.66
75146;BME280;63641;46.526;24.612;2022-10-17T05:10:42;98801.91;;;5.12;74.46
75146;BME280;63641;46.526;24.612;2022-10-17T05:13:09;98806.25;;;5.13;74.41
75146;BME280;63641;46.526;24.612;2022-10-17T05:15:37;98807.09;;;5.13;74.50
75146;BME280;63641;46.526;24.612;2022-10-17T05:18:04;98811.63;;;5.13;74.35
75146;BME280;63641;46.526;24.612;2022-10-17T05:20:32;98818.00;;;5.12;74.61
75146;BME280;63641;46.526;24.612;2022-10-17T05:22:59;98809.13;;;5.11;74.47
75146;BME280;63641;46.526;24.612;2022-10-17T05:25:26;98811.00;;;5.11;74.59
75146;BME280;63641;46.526;24.612;2022-10-17T05:27:53;98822.13;;;5.14;74.63
75146;BME280;63641;46.526;24.612;2022-10-17T05:30:20;98824.63;;;5.16;74.81
75146;BME280;63641;46.526;24.612;2022-10-17T05:32:47;98823.59;;;5.17;74.94
75146;BME280;63641;46.526;24.612;2022-10-17T05:35:13;98825.84;;;5.20;74.88
75146;BME280;63641;46.526;24.612;2022-10-17T05:37:40;98833.28;;;5.24;75.16
75146;BME280;63641;46.526;24.612;2022-10-17T05:40:07;98839.03;;;5.28;75.12
75146;BME280;63641;46.526;24.612;2022-10-17T05:42:34;98831.59;;;5.30;75.01
75146;BME280;63641;46.526;24.612;2022-10-17T05:45:01;98834.69;;;5.33;75.12
75146;BME280;63641;46.526;24.612;2022-10-17T05:47:27;98844.19;;;5.36;75.55
75146;BME280;63641;46.526;24.612;2022-10-17T05:49:54;98846.44;;;5.39;75.47
75146;BME280;63641;46.526;24.612;2022-10-17T05:52:21;98847.06;;;5.41;75.53
75146;BME280;63641;46.526;24.612;2022-10-17T05:54:48;98848.09;;;5.47;75.88
75146;BME280;63641;46.526;24.612;2022-10-17T05:57:15;98849.94;;;5.46;75.82
75146;BME280;63641;46.526;24.612;2022-10-17T05:59:41;98861.50;;;5.53;75.70
75146;BME280;63641;46.526;24.612;2022-10-17T06:02:11;98860.84;;;5.58;75.96
75146;BME280;63641;46.526;24.612;2022-10-17T06:04:38;98857.75;;;5.54;75.84
75146;BME280;63641;46.526;24.612;2022-10-17T06:07:14;98867.84;;;5.66;76.00
75146;BME280;63641;46.526;24.612;2022-10-17T06:09:41;98873.63;;;5.69;76.03
75146;BME280;63641;46.526;24.612;2022-10-17T06:12:08;98875.06;;;5.72;76.26
75146;BME280;63641;46.526;24.612;2022-10-17T06:14:35;98876.72;;;5.73;76.37
75146;BME280;63641;46.526;24.612;2022-10-17T06:17:02;98885.41;;;5.75;76.41
75146;BME280;63641;46.526;24.612;2022-10-17T06:19:28;98889.50;;;5.77;76.45
75146;BME280;63641;46.526;24.612;2022-10-17T06:21:55;98890.13;;;5.79;76.54
75146;BME280;63641;46.526;24.612;2022-10-17T06:24:22;98888.66;;;5.84;76.67
75146;BME280;63641;46.526;24.612;2022-10-17T06:26:49;98897.75;;;5.89;76.81
75146;BME280;63641;46.526;24.612;2022-10-17T06:29:17;98900.63;;;5.94;76.86
75146;BME280;63641;46.526;24.612;2022-10-17T06:31:45;98886.78;;;5.97;76.81
75146;BME280;63641;46.526;24.612;2022-10-17T06:34:12;98888.59;;;6.03;76.86
75146;BME280;63641;46.526;24.612;2022-10-17T06:36:39;98899.56;;;6.09;76.99
75146;BME280;63641;46.526;24.612;2022-10-17T06:39:08;98904.91;;;6.15;77.37
75146;BME280;63641;46.526;24.612;2022-10-17T06:41:37;98908.59;;;6.21;77.26
75146;BME280;63641;46.526;24.612;2022-10-17T06:44:07;98912.28;;;6.26;77.29
75146;BME280;63641;46.526;24.612;2022-10-17T06:46:38;98907.91;;;6.32;77.32
75146;BME280;63641;46.526;24.612;2022-10-17T06:49:08;98903.75;;;6.36;77.64
75146;BME280;63641;46.526;24.612;2022-10-17T06:51:37;98917.97;;;6.43;77.95
75146;BME280;63641;46.526;24.612;2022-10-17T06:54:08;98908.00;;;6.50;77.97
75146;BME280;63641;46.526;24.612;2022-10-17T06:56:37;98913.13;;;6.59;78.04
75146;BME280;63641;46.526;24.612;2022-10-17T06:59:07;98912.03;;;6.66;78.01
75146;BME280;63641;46.526;24.612;2022-10-17T07:01:37;98902.28;;;6.72;78.05
75146;BME280;63641;46.526;24.612;2022-10-17T07:04:10;98914.88;;;6.78;78.26
75146;BME280;63641;46.526;24.612;2022-10-17T07:06:38;98909.00;;;6.88;78.23
75146;BME280;63641;46.526;24.612;2022-10-17T07:09:05;98907.69;;;6.97;78.47
75146;BME280;63641;46.526;24.612;2022-10-17T07:11:36;98923.34;;;7.07;78.61
75146;BME280;63641;46.526;24.612;2022-10-17T07:14:04;98922.03;;;7.16;78.79
75146;BME280;63641;46.526;24.612;2022-10-17T07:16:33;98916.16;;;7.25;78.84
75146;BME280;63641;46.526;24.612;2022-10-17T07:19:00;98924.78;;;7.34;78.86
75146;BME280;63641;46.526;24.612;2022-10-17T07:21:27;98916.22;;;7.44;79.03
75146;BME280;63641;46.526;24.612;2022-10-17T07:23:54;98910.28;;;7.54;79.04
75146;BME280;63641;46.526;24.612;2022-10-17T07:26:21;98912.25;;;7.65;79.21
75146;BME280;63641;46.526;24.612;2022-10-17T07:28:52;98907.53;;;7.79;79.43
75146;BME280;63641;46.526;24.612;2022-10-17T07:31:21;98920.66;;;7.93;79.28
75146;BME280;63641;46.526;24.612;2022-10-17T07:33:48;98913.25;;;8.07;79.63
75146;BME280;63641;46.526;24.612;2022-10-17T07:36:15;98916.56;;;8.21;79.72
75146;BME280;63641;46.526;24.612;2022-10-17T07:38:43;98916.41;;;8.34;79.65
75146;BME280;63641;46.526;24.612;2022-10-17T07:41:10;98915.59;;;8.52;79.59
75146;BME280;63641;46.526;24.612;2022-10-17T07:43:40;98915.97;;;8.67;79.66
75146;BME280;63641;46.526;24.612;2022-10-17T07:46:08;98909.59;;;8.80;79.65
75146;BME280;63641;46.526;24.612;2022-10-17T07:48:39;98910.53;;;8.98;79.65
75146;BME280;63641;46.526;24.612;2022-10-17T07:51:08;98912.59;;;9.14;79.60
75146;BME280;63641;46.526;24.612;2022-10-17T07:53:38;98911.06;;;9.30;79.38
75146;BME280;63641;46.526;24.612;2022-10-17T07:56:09;98911.41;;;9.45;79.30
75146;BME280;63641;46.526;24.612;2022-10-17T07:58:36;98914.47;;;9.60;78.90
75146;BME280;63641;46.526;24.612;2022-10-17T08:01:06;98922.22;;;9.80;78.71
75146;BME280;63641;46.526;24.612;2022-10-17T08:03:48;98917.47;;;9.99;78.32
75146;BME280;63641;46.526;24.612;2022-10-17T08:06:15;98921.09;;;10.16;78.16
75146;BME280;63641;46.526;24.612;2022-10-17T08:08:42;98923.88;;;10.33;77.94
75146;BME280;63641;46.526;24.612;2022-10-17T08:11:11;98910.97;;;10.52;77.65
75146;BME280;63641;46.526;24.612;2022-10-17T08:13:39;98911.84;;;10.70;77.00
75146;BME280;63641;46.526;24.612;2022-10-17T08:16:08;98914.69;;;10.92;75.95
75146;BME280;63641;46.526;24.612;2022-10-17T08:18:35;98915.84;;;11.12;75.32
75146;BME280;63641;46.526;24.612;2022-10-17T08:21:03;98913.22;;;11.34;74.68
75146;BME280;63641;46.526;24.612;2022-10-17T08:23:31;98916.72;;;11.52;74.18
75146;BME280;63641;46.526;24.612;2022-10-17T08:25:59;98911.63;;;11.72;73.41
75146;BME280;63641;46.526;24.612;2022-10-17T08:28:27;98905.94;;;11.91;73.00
75146;BME280;63641;46.526;24.612;2022-10-17T08:31:04;98896.41;;;12.10;72.51
75146;BME280;63641;46.526;24.612;2022-10-17T08:33:32;98896.34;;;12.27;72.00
75146;BME280;63641;46.526;24.612;2022-10-17T08:36:03;98908.22;;;12.48;71.03
75146;BME280;63641;46.526;24.612;2022-10-17T08:38:31;98901.41;;;12.67;70.64
75146;BME280;63641;46.526;24.612;2022-10-17T08:44:23;98905.03;;;13.10;69.19
75146;BME280;63641;46.526;24.612;2022-10-17T08:46:53;98905.75;;;13.27;68.59
75146;BME280;63641;46.526;24.612;2022-10-17T08:54:56;98894.97;;;13.80;66.77
75146;BME280;63641;46.526;24.612;2022-10-17T08:57:23;98896.41;;;13.93;65.81
75146;BME280;63641;46.526;24.612;2022-10-17T08:59:52;98899.47;;;14.07;65.55
75146;BME280;63641;46.526;24.612;2022-10-17T09:03:08;98897.06;;;14.20;65.55
75146;BME280;63641;46.526;24.612;2022-10-17T09:05:45;98904.22;;;14.42;64.96
75146;BME280;63641;46.526;24.612;2022-10-17T09:08:27;98904.31;;;14.62;64.24
75146;BME280;63641;46.526;24.612;2022-10-17T09:11:04;98908.16;;;14.82;63.36
75146;BME280;63641;46.526;24.612;2022-10-17T09:19:36;98899.72;;;15.09;62.10
75146;BME280;63641;46.526;24.612;2022-10-17T09:22:20;98894.28;;;15.19;61.95
75146;BME280;63641;46.526;24.612;2022-10-17T09:24:56;98898.63;;;15.35;61.60
75146;BME280;63641;46.526;24.612;2022-10-17T09:30:53;98905.16;;;15.65;61.28
75146;BME280;63641;46.526;24.612;2022-10-17T09:33:48;98910.63;;;15.80;60.17
75146;BME280;63641;46.526;24.612;2022-10-17T09:36:24;98910.06;;;15.88;59.91
75146;BME280;63641;46.526;24.612;2022-10-17T09:38:55;98907.00;;;16.00;59.94
75146;BME280;63641;46.526;24.612;2022-10-17T09:41:26;98901.22;;;16.12;59.36
75146;BME280;63641;46.526;24.612;2022-10-17T09:44:21;98907.47;;;16.23;59.38
75146;BME280;63641;46.526;24.612;2022-10-17T09:49:31;98906.28;;;16.44;58.48
75146;BME280;63641;46.526;24.612;2022-10-17T09:52:00;98911.16;;;16.52;58.66
75146;BME280;63641;46.526;24.612;2022-10-17T09:54:47;98911.91;;;16.63;58.23
75146;BME280;63641;46.526;24.612;2022-10-17T09:57:16;98911.31;;;16.71;57.86
75146;BME280;63641;46.526;24.612;2022-10-17T09:59:55;98894.38;;;16.79;57.63
75146;BME280;63641;46.526;24.612;2022-10-17T10:02:24;98889.94;;;16.88;57.41
75146;BME280;63641;46.526;24.612;2022-10-17T10:04:52;98898.59;;;17.01;56.84
75146;BME280;63641;46.526;24.612;2022-10-17T10:07:38;98904.78;;;17.17;56.50
75146;BME280;63641;46.526;24.612;2022-10-17T10:10:07;98896.47;;;17.27;56.13
75146;BME280;63641;46.526;24.612;2022-10-17T10:13:14;98891.47;;;17.34;56.31
75146;BME280;63641;46.526;24.612;2022-10-17T10:15:45;98890.88;;;17.42;56.06
75146;BME280;63641;46.526;24.612;2022-10-17T10:21:25;98884.22;;;17.53;55.09
75146;BME280;63641;46.526;24.612;2022-10-17T10:24:05;98878.16;;;17.56;55.18
75146;BME280;63641;46.526;24.612;2022-10-17T10:26:44;98879.72;;;17.62;55.08
75146;BME280;63641;46.526;24.612;2022-10-17T10:29:29;98875.25;;;17.72;55.44
75146;BME280;63641;46.526;24.612;2022-10-17T10:34:33;98867.38;;;17.94;54.94
75146;BME280;63641;46.526;24.612;2022-10-17T10:37:04;98871.84;;;18.09;54.75
75146;BME280;63641;46.526;24.612;2022-10-17T10:39:51;98867.28;;;18.23;54.48
75146;BME280;63641;46.526;24.612;2022-10-17T10:42:46;98872.25;;;18.40;53.66
75146;BME280;63641;46.526;24.612;2022-10-17T10:45:20;98872.66;;;18.52;53.48
75146;BME280;63641;46.526;24.612;2022-10-17T10:50:41;98870.50;;;18.68;53.19
75146;BME280;63641;46.526;24.612;2022-10-17T10:55:53;98866.16;;;18.86;52.55
75146;BME280;63641;46.526;24.612;2022-10-17T11:14:15;98852.84;;;19.59;47.56
75146;BME280;63641;46.526;24.612;2022-10-17T11:17:15;98839.34;;;19.62;47.99
75146;BME280;63641;46.526;24.612;2022-10-17T11:20:20;98849.53;;;19.75;48.06
75146;BME280;63641;46.526;24.612;2022-10-17T11:22:45;98849.16;;;19.82;48.09
75146;BME280;63641;46.526;24.612;2022-10-17T11:27:57;98841.41;;;19.84;48.03
75146;BME280;63641;46.526;24.612;2022-10-17T11:30:39;98843.25;;;19.89;47.67
75146;BME280;63641;46.526;24.612;2022-10-17T11:33:19;98839.19;;;19.86;48.02
75146;BME280;63641;46.526;24.612;2022-10-17T11:35:47;98837.56;;;19.85;48.06
75146;BME280;63641;46.526;24.612;2022-10-17T11:38:37;98842.41;;;19.88;47.72
75146;BME280;63641;46.526;24.612;2022-10-17T11:41:07;98836.31;;;19.91;47.85
75146;BME280;63641;46.526;24.612;2022-10-17T11:43:37;98840.41;;;19.94;47.82
75146;BME280;63641;46.526;24.612;2022-10-17T11:46:13;98831.84;;;19.95;47.86
75146;BME280;63641;46.526;24.612;2022-10-17T11:49:01;98830.94;;;20.00;47.72
75146;BME280;63641;46.526;24.612;2022-10-17T11:51:42;98834.50;;;20.00;47.80
75146;BME280;63641;46.526;24.612;2022-10-17T11:54:37;98841.13;;;19.99;47.27
75146;BME280;63641;46.526;24.612;2022-10-17T12:08:52;98827.06;;;19.87;46.80
75146;BME280;63641;46.526;24.612;2022-10-17T12:13:53;98819.75;;;19.83;46.91
75146;BME280;63641;46.526;24.612;2022-10-17T12:18:48;98817.53;;;19.85;46.69
75146;BME280;63641;46.526;24.612;2022-10-17T12:21:17;98814.34;;;19.91;46.20
75146;BME280;63641;46.526;24.612;2022-10-17T12:23:54;98809.66;;;19.92;45.95
75146;BME280;63641;46.526;24.612;2022-10-17T12:26:28;98814.34;;;20.05;46.33
75146;BME280;63641;46.526;24.612;2022-10-17T12:28:56;98812.09;;;20.07;45.98
75146;BME280;63641;46.526;24.612;2022-10-17T12:31:24;98810.38;;;20.11;45.89
75146;BME280;63641;46.526;24.612;2022-10-17T12:34:00;98811.06;;;20.17;45.69
75146;BME280;63641;46.526;24.612;2022-10-17T12:49:38;98805.34;;;20.27;45.03
75146;BME280;63641;46.526;24.612;2022-10-17T12:55:12;98799.34;;;20.25;44.96
75146;BME280;63641;46.526;24.612;2022-10-17T13:00:20;98804.59;;;20.35;44.93
75146;BME280;63641;46.526;24.612;2022-10-17T13:02:49;98797.88;;;20.41;44.93
75146;BME280;63641;46.526;24.612;2022-10-17T13:05:36;98797.69;;;20.38;45.27
75146;BME280;63641;46.526;24.612;2022-10-17T13:08:06;98800.75;;;20.36;45.03
75146;BME280;63641;46.526;24.612;2022-10-17T13:10:38;98791.66;;;20.36;45.08
75146;BME280;63641;46.526;24.612;2022-10-17T13:15:59;98800.91;;;20.40;45.14
75146;BME280;63641;46.526;24.612;2022-10-17T13:18:28;98795.25;;;20.36;44.92
75146;BME280;63641;46.526;24.612;2022-10-17T13:20:55;98807.75;;;20.42;45.20
75146;BME280;63641;46.526;24.612;2022-10-17T13:23:24;98798.69;;;20.42;45.18
75146;BME280;63641;46.526;24.612;2022-10-17T13:26:12;98802.16;;;20.47;45.23
75146;BME280;63641;46.526;24.612;2022-10-17T13:28:40;98799.81;;;20.41;45.13
75146;BME280;63641;46.526;24.612;2022-10-17T13:31:26;98798.81;;;20.37;45.03
75146;BME280;63641;46.526;24.612;2022-10-17T13:33:58;98797.91;;;20.27;45.26
75146;BME280;63641;46.526;24.612;2022-10-17T13:36:26;98793.34;;;20.23;45.67
75146;BME280;63641;46.526;24.612;2022-10-17T13:38:54;98801.06;;;20.21;45.91
75146;BME280;63641;46.526;24.612;2022-10-17T13:41:31;98795.91;;;20.19;45.70
75146;BME280;63641;46.526;24.612;2022-10-17T13:44:05;98787.47;;;20.16;45.81
75146;BME280;63641;46.526;24.612;2022-10-17T13:46:33;98794.88;;;20.15;46.15
75146;BME280;63641;46.526;24.612;2022-10-17T13:49:16;98795.19;;;20.14;45.69
75146;BME280;63641;46.526;24.612;2022-10-17T13:51:49;98795.63;;;20.07;45.62
75146;BME280;63641;46.526;24.612;2022-10-17T13:54:37;98786.16;;;19.99;46.22
75146;BME280;63641;46.526;24.612;2022-10-17T13:59:58;98792.81;;;19.85;46.48
75146;BME280;63641;46.526;24.612;2022-10-17T14:02:35;98797.03;;;19.77;46.97
75146;BME280;63641;46.526;24.612;2022-10-17T14:07:52;98791.56;;;19.63;47.38
75146;BME280;63641;46.526;24.612;2022-10-17T14:10:41;98790.31;;;19.55;47.72
75146;BME280;63641;46.526;24.612;2022-10-17T14:13:25;98784.91;;;19.50;48.20
75146;BME280;63641;46.526;24.612;2022-10-17T14:15:54;98786.34;;;19.48;48.83
75146;BME280;63641;46.526;24.612;2022-10-17T14:18:33;98784.81;;;19.42;49.14
75146;BME280;63641;46.526;24.612;2022-10-17T14:21:03;98788.75;;;19.36;49.14
75146;BME280;63641;46.526;24.612;2022-10-17T14:24:10;98782.53;;;19.16;49.34
75146;BME280;63641;46.526;24.612;2022-10-17T14:26:49;98790.66;;;19.08;49.61
75146;BME280;63641;46.526;24.612;2022-10-17T14:29:22;98789.50;;;18.95;50.26
75146;BME280;63641;46.526;24.612;2022-10-17T14:32:04;98798.50;;;18.81;50.81
75146;BME280;63641;46.526;24.612;2022-10-17T14:34:34;98781.97;;;18.68;51.45
75146;BME280;63641;46.526;24.612;2022-10-17T14:37:12;98784.94;;;18.52;52.00
75146;BME280;63641;46.526;24.612;2022-10-17T14:39:52;98788.72;;;18.38;52.66
75146;BME280;63641;46.526;24.612;2022-10-17T14:42:23;98785.09;;;18.23;52.97
75146;BME280;63641;46.526;24.612;2022-10-17T14:44:53;98799.16;;;18.17;53.36
75146;BME280;63641;46.526;24.612;2022-10-17T14:47:25;98790.25;;;18.06;53.58
75146;BME280;63641;46.526;24.612;2022-10-17T14:53:20;98785.66;;;17.82;54.43
75146;BME280;63641;46.526;24.612;2022-10-17T14:55:58;98783.25;;;17.71;54.80
75146;BME280;63641;46.526;24.612;2022-10-17T14:58:31;98790.28;;;17.58;55.34
75146;BME280;63641;46.526;24.612;2022-10-17T15:01:01;98785.78;;;17.43;55.48
75146;BME280;63641;46.526;24.612;2022-10-17T15:03:30;98785.06;;;17.32;55.88
75146;BME280;63641;46.526;24.612;2022-10-17T15:05:57;98783.56;;;17.21;56.37
75146;BME280;63641;46.526;24.612;2022-10-17T15:08:35;98781.22;;;17.09;56.53
75146;BME280;63641;46.526;24.612;2022-10-17T15:11:05;98781.59;;;16.98;57.10
75146;BME280;63641;46.526;24.612;2022-10-17T15:13:34;98781.94;;;16.86;57.44
75146;BME280;63641;46.526;24.612;2022-10-17T15:16:26;98784.78;;;16.76;57.53
75146;BME280;63641;46.526;24.612;2022-10-17T15:18:56;98787.59;;;16.60;57.99
75146;BME280;63641;46.526;24.612;2022-10-17T15:21:27;98781.72;;;16.43;58.46
75146;BME280;63641;46.526;24.612;2022-10-17T15:24:11;98784.50;;;16.33;58.83
75146;BME280;63641;46.526;24.612;2022-10-17T15:26:41;98785.13;;;16.19;58.65
75146;BME280;63641;46.526;24.612;2022-10-17T15:29:13;98787.94;;;16.09;59.01